sensor_id;sensor_type;location;lat;lon;timestamp;temperature;humidity
43414;DHT22;29013;49.676;8.606;2022-08-01T00:03:21;23.0;76.0
43414;DHT22;29013;49.676;8.606;2022-08-01T00:08:48;23.1;77.1
43414;DHT22;29013;49.676;8.606;2022-08-01T00:14:14;23.1;77.0
43414;DHT22;29013;49.676;8.606;2022-08-01T00:19:42;23.0;78.4
43414;DHT22;29013;49.676;8.606;2022-08-01T00:25:08;23.0;78.3
43414;DHT22;29013;49.676;8.606;2022-08-01T00:30:31;23.0;78.4
43414;DHT22;29013;49.676;8.606;2022-08-01T00:35:56;23.0;79.2
43414;DHT22;29013;49.676;8.606;2022-08-01T00:41:24;23.0;79.0
43414;DHT22;29013;49.676;8.606;2022-08-01T00:46:46;23.0;78.6
43414;DHT22;29013;49.676;8.606;2022-08-01T00:52:11;22.9;78.3
43414;DHT22;29013;49.676;8.606;2022-08-01T00:57:39;23.0;78.1
43414;DHT22;29013;49.676;8.606;2022-08-01T01:03:04;22.9;78.1
43414;DHT22;29013;49.676;8.606;2022-08-01T01:08:35;22.9;78.1
43414;DHT22;29013;49.676;8.606;2022-08-01T01:13:56;22.9;79.0
43414;DHT22;29013;49.676;8.606;2022-08-01T01:19:23;22.7;78.8
43414;DHT22;29013;49.676;8.606;2022-08-01T01:24:47;22.7;79.8
43414;DHT22;29013;49.676;8.606;2022-08-01T01:30:09;22.6;78.9
43414;DHT22;29013;49.676;8.606;2022-08-01T01:35:35;22.6;79.0
43414;DHT22;29013;49.676;8.606;2022-08-01T01:41:00;22.6;79.3
43414;DHT22;29013;49.676;8.606;2022-08-01T01:46:26;22.6;79.2
43414;DHT22;29013;49.676;8.606;2022-08-01T01:51:54;22.6;80.0
43414;DHT22;29013;49.676;8.606;2022-08-01T01:57:21;22.6;80.5
43414;DHT22;29013;49.676;8.606;2022-08-01T02:02:43;22.6;80.9
43414;DHT22;29013;49.676;8.606;2022-08-01T02:08:15;22.5;81.7
43414;DHT22;29013;49.676;8.606;2022-08-01T02:13:40;22.4;82.6
43414;DHT22;29013;49.676;8.606;2022-08-01T02:19:05;22.4;83.4
43414;DHT22;29013;49.676;8.606;2022-08-01T02:24:35;22.4;83.5
43414;DHT22;29013;49.676;8.606;2022-08-01T02:29:59;22.3;84.4
43414;DHT22;29013;49.676;8.606;2022-08-01T02:35:26;22.3;84.6
43414;DHT22;29013;49.676;8.606;2022-08-01T02:40:53;22.3;84.5
43414;DHT22;29013;49.676;8.606;2022-08-01T02:46:18;22.3;85.2
43414;DHT22;29013;49.676;8.606;2022-08-01T02:51:41;22.3;85.5
43414;DHT22;29013;49.676;8.606;2022-08-01T02:57:03;22.3;85.8
43414;DHT22;29013;49.676;8.606;2022-08-01T03:02:24;22.3;85.2
43414;DHT22;29013;49.676;8.606;2022-08-01T03:07:46;22.2;85.3
43414;DHT22;29013;49.676;8.606;2022-08-01T03:13:08;22.2;85.3
43414;DHT22;29013;49.676;8.606;2022-08-01T03:18:34;22.2;85.7
43414;DHT22;29013;49.676;8.606;2022-08-01T03:24:02;22.0;85.7
43414;DHT22;29013;49.676;8.606;2022-08-01T03:29:28;22.0;86.4
43414;DHT22;29013;49.676;8.606;2022-08-01T03:34:54;21.9;86.7
43414;DHT22;29013;49.676;8.606;2022-08-01T03:40:23;21.8;87.2
43414;DHT22;29013;49.676;8.606;2022-08-01T03:45:50;21.8;87.6
43414;DHT22;29013;49.676;8.606;2022-08-01T03:51:14;21.8;88.2
43414;DHT22;29013;49.676;8.606;2022-08-01T03:56:41;21.9;88.2
43414;DHT22;29013;49.676;8.606;2022-08-01T04:02:08;21.9;88.4
43414;DHT22;29013;49.676;8.606;2022-08-01T04:07:36;22.0;88.5
43414;DHT22;29013;49.676;8.606;2022-08-01T04:13:03;22.0;89.3
43414;DHT22;29013;49.676;8.606;2022-08-01T04:18:30;22.0;89.4
43414;DHT22;29013;49.676;8.606;2022-08-01T04:23:52;22.0;88.8
43414;DHT22;29013;49.676;8.606;2022-08-01T04:29:14;22.1;89.2
43414;DHT22;29013;49.676;8.606;2022-08-01T04:34:35;22.1;89.1
43414;DHT22;29013;49.676;8.606;2022-08-01T04:39:56;22.1;90.0
43414;DHT22;29013;49.676;8.606;2022-08-01T04:45:18;22.1;89.8
43414;DHT22;29013;49.676;8.606;2022-08-01T04:50:40;22.1;89.8
43414;DHT22;29013;49.676;8.606;2022-08-01T04:56:02;22.1;90.0
43414;DHT22;29013;49.676;8.606;2022-08-01T05:01:24;22.2;90.3
43414;DHT22;29013;49.676;8.606;2022-08-01T05:06:47;22.2;90.0
43414;DHT22;29013;49.676;8.606;2022-08-01T05:12:11;22.3;90.5
43414;DHT22;29013;49.676;8.606;2022-08-01T05:17:33;22.3;91.4
43414;DHT22;29013;49.676;8.606;2022-08-01T05:22:55;22.4;90.7
43414;DHT22;29013;49.676;8.606;2022-08-01T05:28:17;22.4;91.7
43414;DHT22;29013;49.676;8.606;2022-08-01T05:33:44;22.4;91.9
43414;DHT22;29013;49.676;8.606;2022-08-01T05:39:12;22.4;92.1
43414;DHT22;29013;49.676;8.606;2022-08-01T05:44:38;22.5;91.8
43414;DHT22;29013;49.676;8.606;2022-08-01T05:50:08;22.5;92.0
43414;DHT22;29013;49.676;8.606;2022-08-01T05:55:31;22.6;92.5
43414;DHT22;29013;49.676;8.606;2022-08-01T06:00:58;22.7;91.8
43414;DHT22;29013;49.676;8.606;2022-08-01T06:06:21;22.7;91.7
43414;DHT22;29013;49.676;8.606;2022-08-01T06:11:47;22.7;91.6
43414;DHT22;29013;49.676;8.606;2022-08-01T06:17:09;22.8;91.9
43414;DHT22;29013;49.676;8.606;2022-08-01T06:22:31;23.0;92.0
43414;DHT22;29013;49.676;8.606;2022-08-01T06:27:56;23.2;91.4
43414;DHT22;29013;49.676;8.606;2022-08-01T06:33:18;23.5;90.9
43414;DHT22;29013;49.676;8.606;2022-08-01T06:38:39;23.7;90.4
43414;DHT22;29013;49.676;8.606;2022-08-01T06:44:02;24.2;91.0
43414;DHT22;29013;49.676;8.606;2022-08-01T06:49:24;24.9;90.0
43414;DHT22;29013;49.676;8.606;2022-08-01T06:54:46;25.4;85.7
43414;DHT22;29013;49.676;8.606;2022-08-01T07:00:13;25.9;84.1
43414;DHT22;29013;49.676;8.606;2022-08-01T07:05:34;26.3;82.1
43414;DHT22;29013;49.676;8.606;2022-08-01T07:11:25;26.6;79.3
43414;DHT22;29013;49.676;8.606;2022-08-01T07:16:44;27.0;78.3
43414;DHT22;29013;49.676;8.606;2022-08-01T07:22:06;26.8;77.5
43414;DHT22;29013;49.676;8.606;2022-08-01T07:27:28;26.4;77.4
43414;DHT22;29013;49.676;8.606;2022-08-01T07:32:49;26.1;79.4
43414;DHT22;29013;49.676;8.606;2022-08-01T07:38:11;26.0;79.6
43414;DHT22;29013;49.676;8.606;2022-08-01T07:43:32;25.6;79.9
43414;DHT22;29013;49.676;8.606;2022-08-01T07:48:54;25.6;80.1
43414;DHT22;29013;49.676;8.606;2022-08-01T07:54:16;25.6;79.3
43414;DHT22;29013;49.676;8.606;2022-08-01T07:59:38;25.8;80.1
43414;DHT22;29013;49.676;8.606;2022-08-01T08:05:00;26.0;79.7
43414;DHT22;29013;49.676;8.606;2022-08-01T08:10:22;26.1;80.6
43414;DHT22;29013;49.676;8.606;2022-08-01T08:15:46;26.5;78.9
43414;DHT22;29013;49.676;8.606;2022-08-01T08:21:14;26.7;78.0
43414;DHT22;29013;49.676;8.606;2022-08-01T08:26:41;26.6;77.0
43414;DHT22;29013;49.676;8.606;2022-08-01T08:32:12;26.5;76.6
43414;DHT22;29013;49.676;8.606;2022-08-01T08:37:39;26.7;76.6
43414;DHT22;29013;49.676;8.606;2022-08-01T08:43:03;26.6;75.9
43414;DHT22;29013;49.676;8.606;2022-08-01T08:48:29;26.6;76.7
43414;DHT22;29013;49.676;8.606;2022-08-01T08:53:56;26.9;76.3
43414;DHT22;29013;49.676;8.606;2022-08-01T08:59:26;27.6;74.2
43414;DHT22;29013;49.676;8.606;2022-08-01T09:04:53;27.7;74.0
43414;DHT22;29013;49.676;8.606;2022-08-01T09:10:20;27.9;71.9
43414;DHT22;29013;49.676;8.606;2022-08-01T09:15:45;28.1;72.5
43414;DHT22;29013;49.676;8.606;2022-08-01T09:21:14;28.0;71.0
43414;DHT22;29013;49.676;8.606;2022-08-01T09:26:36;28.0;71.3
43414;DHT22;29013;49.676;8.606;2022-08-01T09:32:05;27.8;71.0
43414;DHT22;29013;49.676;8.606;2022-08-01T09:37:33;27.8;69.9
43414;DHT22;29013;49.676;8.606;2022-08-01T09:43:11;28.0;70.7
43414;DHT22;29013;49.676;8.606;2022-08-01T09:48:37;28.4;69.7
43414;DHT22;29013;49.676;8.606;2022-08-01T09:54:06;28.4;68.4
43414;DHT22;29013;49.676;8.606;2022-08-01T09:59:39;28.2;69.3
43414;DHT22;29013;49.676;8.606;2022-08-01T10:05:03;28.2;67.3
43414;DHT22;29013;49.676;8.606;2022-08-01T10:10:29;28.3;70.6
43414;DHT22;29013;49.676;8.606;2022-08-01T10:15:56;29.1;67.3
43414;DHT22;29013;49.676;8.606;2022-08-01T10:21:39;29.3;67.6
43414;DHT22;29013;49.676;8.606;2022-08-01T10:27:33;29.5;65.2
43414;DHT22;29013;49.676;8.606;2022-08-01T10:32:54;29.2;66.2
43414;DHT22;29013;49.676;8.606;2022-08-01T10:38:16;30.2;64.9
43414;DHT22;29013;49.676;8.606;2022-08-01T10:43:38;30.5;61.4
43414;DHT22;29013;49.676;8.606;2022-08-01T10:49:01;29.8;62.6
43414;DHT22;29013;49.676;8.606;2022-08-01T10:54:25;30.2;63.5
43414;DHT22;29013;49.676;8.606;2022-08-01T10:59:52;30.8;62.4
43414;DHT22;29013;49.676;8.606;2022-08-01T11:05:19;31.0;59.8
43414;DHT22;29013;49.676;8.606;2022-08-01T11:10:38;31.0;59.8
43414;DHT22;29013;49.676;8.606;2022-08-01T11:16:02;31.1;58.9
43414;DHT22;29013;49.676;8.606;2022-08-01T11:27:21;30.2;59.4
43414;DHT22;29013;49.676;8.606;2022-08-01T11:32:51;30.2;59.8
43414;DHT22;29013;49.676;8.606;2022-08-01T11:38:27;29.8;60.0
43414;DHT22;29013;49.676;8.606;2022-08-01T11:43:59;29.7;59.8
43414;DHT22;29013;49.676;8.606;2022-08-01T11:55:10;30.0;59.4
43414;DHT22;29013;49.676;8.606;2022-08-01T12:00:35;30.0;58.7
43414;DHT22;29013;49.676;8.606;2022-08-01T12:06:01;29.9;58.5
43414;DHT22;29013;49.676;8.606;2022-08-01T12:11:28;30.0;58.3
43414;DHT22;29013;49.676;8.606;2022-08-01T12:16:56;30.2;58.0
43414;DHT22;29013;49.676;8.606;2022-08-01T12:22:24;30.2;58.0
43414;DHT22;29013;49.676;8.606;2022-08-01T12:27:46;30.0;57.3
43414;DHT22;29013;49.676;8.606;2022-08-01T12:33:16;30.0;58.2
43414;DHT22;29013;49.676;8.606;2022-08-01T12:38:37;30.1;58.5
43414;DHT22;29013;49.676;8.606;2022-08-01T12:44:02;30.2;57.6
43414;DHT22;29013;49.676;8.606;2022-08-01T12:49:28;30.0;58.0
43414;DHT22;29013;49.676;8.606;2022-08-01T12:55:10;30.1;57.9
43414;DHT22;29013;49.676;8.606;2022-08-01T13:00:33;30.0;57.3
43414;DHT22;29013;49.676;8.606;2022-08-01T13:06:00;29.8;58.0
43414;DHT22;29013;49.676;8.606;2022-08-01T13:11:22;29.8;58.7
43414;DHT22;29013;49.676;8.606;2022-08-01T13:16:49;29.9;58.7
43414;DHT22;29013;49.676;8.606;2022-08-01T13:22:17;29.9;58.7
43414;DHT22;29013;49.676;8.606;2022-08-01T13:27:44;30.0;58.8
43414;DHT22;29013;49.676;8.606;2022-08-01T13:33:11;30.1;57.9
43414;DHT22;29013;49.676;8.606;2022-08-01T13:38:39;29.9;57.2
43414;DHT22;29013;49.676;8.606;2022-08-01T13:44:07;29.9;58.2
43414;DHT22;29013;49.676;8.606;2022-08-01T13:49:35;29.9;57.0
43414;DHT22;29013;49.676;8.606;2022-08-01T13:54:56;29.6;56.7
43414;DHT22;29013;49.676;8.606;2022-08-01T14:00:25;29.8;57.2
43414;DHT22;29013;49.676;8.606;2022-08-01T14:05:53;29.9;57.2
43414;DHT22;29013;49.676;8.606;2022-08-01T14:11:17;30.0;56.9
43414;DHT22;29013;49.676;8.606;2022-08-01T14:16:43;29.9;58.0
43414;DHT22;29013;49.676;8.606;2022-08-01T14:22:09;29.8;58.3
43414;DHT22;29013;49.676;8.606;2022-08-01T14:27:36;29.7;58.4
43414;DHT22;29013;49.676;8.606;2022-08-01T14:32:58;29.8;58.8
43414;DHT22;29013;49.676;8.606;2022-08-01T14:38:26;29.6;58.1
43414;DHT22;29013;49.676;8.606;2022-08-01T14:43:50;29.7;58.4
43414;DHT22;29013;49.676;8.606;2022-08-01T14:49:17;29.7;56.9
43414;DHT22;29013;49.676;8.606;2022-08-01T14:54:46;29.6;58.0
43414;DHT22;29013;49.676;8.606;2022-08-01T15:00:16;29.7;57.9
43414;DHT22;29013;49.676;8.606;2022-08-01T15:05:45;29.6;57.0
43414;DHT22;29013;49.676;8.606;2022-08-01T15:11:14;29.6;59.3
43414;DHT22;29013;49.676;8.606;2022-08-01T15:16:40;29.7;57.5
43414;DHT22;29013;49.676;8.606;2022-08-01T15:22:04;29.8;57.6
43414;DHT22;29013;49.676;8.606;2022-08-01T15:27:30;29.8;57.0
43414;DHT22;29013;49.676;8.606;2022-08-01T15:32:56;29.7;57.2
43414;DHT22;29013;49.676;8.606;2022-08-01T15:38:18;29.7;57.0
43414;DHT22;29013;49.676;8.606;2022-08-01T15:43:39;29.6;57.6
43414;DHT22;29013;49.676;8.606;2022-08-01T15:49:06;29.6;57.4
43414;DHT22;29013;49.676;8.606;2022-08-01T15:54:34;29.5;58.8
43414;DHT22;29013;49.676;8.606;2022-08-01T15:59:57;29.4;57.8
43414;DHT22;29013;49.676;8.606;2022-08-01T16:05:25;29.4;57.8
43414;DHT22;29013;49.676;8.606;2022-08-01T16:10:52;29.4;57.1
43414;DHT22;29013;49.676;8.606;2022-08-01T16:16:18;29.2;59.0
43414;DHT22;29013;49.676;8.606;2022-08-01T16:21:46;28.9;61.0
43414;DHT22;29013;49.676;8.606;2022-08-01T16:27:13;28.5;62.3
43414;DHT22;29013;49.676;8.606;2022-08-01T16:32:41;28.4;62.7
43414;DHT22;29013;49.676;8.606;2022-08-01T16:38:05;28.3;62.7
43414;DHT22;29013;49.676;8.606;2022-08-01T16:43:32;28.1;62.7
43414;DHT22;29013;49.676;8.606;2022-08-01T16:49:00;28.1;63.3
43414;DHT22;29013;49.676;8.606;2022-08-01T16:54:26;27.9;64.5
43414;DHT22;29013;49.676;8.606;2022-08-01T16:59:53;27.7;64.6
43414;DHT22;29013;49.676;8.606;2022-08-01T17:05:15;27.6;65.0
43414;DHT22;29013;49.676;8.606;2022-08-01T17:10:37;27.5;65.2
43414;DHT22;29013;49.676;8.606;2022-08-01T17:16:03;27.5;65.5
43414;DHT22;29013;49.676;8.606;2022-08-01T17:21:29;27.4;65.8
43414;DHT22;29013;49.676;8.606;2022-08-01T17:26:53;27.3;66.2
43414;DHT22;29013;49.676;8.606;2022-08-01T17:32:20;27.3;65.8
43414;DHT22;29013;49.676;8.606;2022-08-01T17:37:46;27.3;65.2
43414;DHT22;29013;49.676;8.606;2022-08-01T17:43:14;27.3;65.6
43414;DHT22;29013;49.676;8.606;2022-08-01T17:48:40;27.2;65.5
43414;DHT22;29013;49.676;8.606;2022-08-01T17:54:07;27.1;65.8
43414;DHT22;29013;49.676;8.606;2022-08-01T17:59:34;26.9;65.9
43414;DHT22;29013;49.676;8.606;2022-08-01T18:04:56;26.9;66.3
43414;DHT22;29013;49.676;8.606;2022-08-01T18:10:19;26.7;66.7
43414;DHT22;29013;49.676;8.606;2022-08-01T18:15:46;26.6;66.7
43414;DHT22;29013;49.676;8.606;2022-08-01T18:21:11;26.5;66.8
43414;DHT22;29013;49.676;8.606;2022-08-01T18:26:37;26.5;67.2
43414;DHT22;29013;49.676;8.606;2022-08-01T18:32:04;26.4;67.8
43414;DHT22;29013;49.676;8.606;2022-08-01T18:37:28;26.3;68.3
43414;DHT22;29013;49.676;8.606;2022-08-01T18:42:54;26.2;68.9
43414;DHT22;29013;49.676;8.606;2022-08-01T18:48:19;26.2;68.4
43414;DHT22;29013;49.676;8.606;2022-08-01T18:53:47;26.1;68.5
43414;DHT22;29013;49.676;8.606;2022-08-01T18:59:13;26.0;68.8
43414;DHT22;29013;49.676;8.606;2022-08-01T19:04:41;26.0;69.5
43414;DHT22;29013;49.676;8.606;2022-08-01T19:10:10;25.8;73.0
43414;DHT22;29013;49.676;8.606;2022-08-01T19:15:36;25.5;75.6
43414;DHT22;29013;49.676;8.606;2022-08-01T19:21:02;25.3;75.0
43414;DHT22;29013;49.676;8.606;2022-08-01T19:26:28;25.3;74.7
43414;DHT22;29013;49.676;8.606;2022-08-01T19:31:56;25.1;75.1
43414;DHT22;29013;49.676;8.606;2022-08-01T19:37:21;25.1;75.6
43414;DHT22;29013;49.676;8.606;2022-08-01T19:42:45;25.0;77.8
43414;DHT22;29013;49.676;8.606;2022-08-01T19:48:13;24.8;77.4
43414;DHT22;29013;49.676;8.606;2022-08-01T19:53:43;24.7;77.7
43414;DHT22;29013;49.676;8.606;2022-08-01T19:59:08;24.6;77.7
43414;DHT22;29013;49.676;8.606;2022-08-01T20:04:35;24.5;78.9
43414;DHT22;29013;49.676;8.606;2022-08-01T20:10:01;24.4;79.8
43414;DHT22;29013;49.676;8.606;2022-08-01T20:15:25;24.3;79.7
43414;DHT22;29013;49.676;8.606;2022-08-01T20:20:52;24.2;81.1
43414;DHT22;29013;49.676;8.606;2022-08-01T20:26:19;24.2;82.0
43414;DHT22;29013;49.676;8.606;2022-08-01T20:31:45;24.1;82.1
43414;DHT22;29013;49.676;8.606;2022-08-01T20:37:09;24.1;83.0
43414;DHT22;29013;49.676;8.606;2022-08-01T20:42:33;24.0;82.8
43414;DHT22;29013;49.676;8.606;2022-08-01T20:47:59;23.9;83.6
43414;DHT22;29013;49.676;8.606;2022-08-01T20:53:27;23.9;85.4
43414;DHT22;29013;49.676;8.606;2022-08-01T20:59:07;23.9;86.0
43414;DHT22;29013;49.676;8.606;2022-08-01T21:04:45;23.9;86.1
43414;DHT22;29013;49.676;8.606;2022-08-01T21:10:07;23.9;85.0
43414;DHT22;29013;49.676;8.606;2022-08-01T21:15:36;23.8;85.4
43414;DHT22;29013;49.676;8.606;2022-08-01T21:21:01;23.8;85.4
43414;DHT22;29013;49.676;8.606;2022-08-01T21:26:27;23.7;85.4
43414;DHT22;29013;49.676;8.606;2022-08-01T21:31:54;23.7;85.5
43414;DHT22;29013;49.676;8.606;2022-08-01T21:37:21;23.7;84.6
43414;DHT22;29013;49.676;8.606;2022-08-01T21:42:49;23.7;84.6
43414;DHT22;29013;49.676;8.606;2022-08-01T21:48:15;23.7;84.5
43414;DHT22;29013;49.676;8.606;2022-08-01T21:53:43;23.7;84.1
43414;DHT22;29013;49.676;8.606;2022-08-01T21:59:09;23.7;84.7
43414;DHT22;29013;49.676;8.606;2022-08-01T22:04:36;23.7;84.5
43414;DHT22;29013;49.676;8.606;2022-08-01T22:09:57;23.6;84.6
43414;DHT22;29013;49.676;8.606;2022-08-01T22:15:23;23.6;84.9
43414;DHT22;29013;49.676;8.606;2022-08-01T22:20:44;23.5;85.6
43414;DHT22;29013;49.676;8.606;2022-08-01T22:26:06;23.5;86.2
43414;DHT22;29013;49.676;8.606;2022-08-01T22:31:32;23.4;85.3
43414;DHT22;29013;49.676;8.606;2022-08-01T22:36:59;23.3;85.3
43414;DHT22;29013;49.676;8.606;2022-08-01T22:42:27;23.4;84.6
43414;DHT22;29013;49.676;8.606;2022-08-01T22:47:56;23.3;85.7
43414;DHT22;29013;49.676;8.606;2022-08-01T22:53:18;23.2;85.5
43414;DHT22;29013;49.676;8.606;2022-08-01T22:58:42;23.0;85.6
43414;DHT22;29013;49.676;8.606;2022-08-01T23:04:11;23.0;85.4
43414;DHT22;29013;49.676;8.606;2022-08-01T23:09:38;22.9;86.0
43414;DHT22;29013;49.676;8.606;2022-08-01T23:15:09;22.8;86.1
43414;DHT22;29013;49.676;8.606;2022-08-01T23:20:32;22.8;87.1
43414;DHT22;29013;49.676;8.606;2022-08-01T23:25:54;22.7;86.9
43414;DHT22;29013;49.676;8.606;2022-08-01T23:31:21;22.6;87.4
43414;DHT22;29013;49.676;8.606;2022-08-01T23:36:48;22.5;88.0
43414;DHT22;29013;49.676;8.606;2022-08-01T23:42:16;22.4;88.2
43414;DHT22;29013;49.676;8.606;2022-08-01T23:47:41;22.3;90.4
43414;DHT22;29013;49.676;8.606;2022-08-01T23:53:03;22.2;89.4
43414;DHT22;29013;49.676;8.606;2022-08-01T23:58:30;22.2;89.6
